Airfield :
LOGIN :

Register | Disclaimer

   EN    FR    IT 

 










Legend :    VFR   Marginal VFR   IFR   Intensive IFR   Very Intensive IFR
Visi :
Ceiling :
>= 8 km
>= 3000ft
5 to 8 km
1000 to 3000 ft
1500m to 5 km
500 to 1000 ft
800 to 1500m
200 to 500 ft
< 800m
< 200 ft
Symbols :   Thunderstorms  Fog  Heavy snow  Heavy precipitations  Wind > 20 kt
SIGMETs :     Misc.  Thunderstorms  Icing  Turbulence  Mountain Waves  Volcanic Ashes







- Airport Elevation : 257 ft
- IATA code : MAN
- Download approach charts


EGCC - Manchester

CURRENT METAR :
  • 232320Z AUTO 03008KT 9999 NCD 09/06 Q0996 NOSIG

EXPIRED METARs :
  • 232250Z AUTO 05007KT 9999 NCD 10/06 Q0996 NOSIG
  • 232220Z AUTO 04005KT 9999 NCD 10/07 Q0996 NOSIG
  • 232150Z AUTO 04007KT 9999 NCD 11/06 Q0996 NOSIG
  • 232120Z AUTO 05007KT 9999 NCD 11/05 Q0997 NOSIG
  • 232050Z AUTO 06007KT 9999 NCD 12/05 Q0997 NOSIG

TAF TAF EGCC
Valid from the 24 at 00:00 until the 25 at 06:00 UTC


232303Z 2400/2506 07009KT 9999 FEW025
PROB30
TEMPO 2403/2412 12015G25KT
PROB30 2406/2412 9000
TEMPO 2412/2418 7000 SHRA
BECMG 2415/2418 15014KT
PROB30
TEMPO 2415/2419 16018G28KT 3000 +SHRA TSGR BKN014 BKN025CB
PROB30
TEMPO 2504/2506 7000 SHRA
ATIS : +44 161 499 2324
No reported NOTAMs for that airfield.



MET'MAP, your aeronautical weather chart ! - Copyright ORBIFLY December 2007 - Disclaimer

ORBIFLY MET'MAP TEAM :

Programming & Development : Alexandra Zaïnal
Concept & Development : Baudouin d'Aumeries
Co-Development & Prog : Marc-Olivier Méhu
Technical & hardware support : Manuel Goepfert

Contact : metmap@orbifly.com




SOURCES & CREDITS :

   NOAA